createdAt,value
2023-03-26T00:01:51.191Z,13.57
2023-03-26T00:04:21.923Z,17.23
2023-03-26T00:06:50.525Z,20.15
2023-03-26T00:09:18.728Z,18.10
2023-03-26T00:11:46.765Z,19.75
2023-03-26T00:14:17.887Z,15.35
2023-03-26T00:16:47.481Z,17.00
2023-03-26T00:19:15.781Z,17.45
2023-03-26T00:21:43.404Z,23.83
2023-03-26T00:24:15.447Z,28.08
2023-03-26T00:26:44.755Z,22.63
2023-03-26T00:29:15.562Z,27.52
2023-03-26T00:31:46.246Z,25.52
2023-03-26T00:34:16.011Z,25.38
2023-03-26T00:36:44.076Z,30.10
2023-03-26T00:39:11.554Z,24.70
2023-03-26T00:41:43.151Z,23.65
2023-03-26T00:44:11.489Z,24.60
2023-03-26T00:46:39.616Z,29.63
2023-03-26T00:49:11.104Z,25.27
2023-03-26T00:51:39.369Z,22.27
2023-03-26T00:54:08.739Z,22.85
2023-03-26T00:56:36.353Z,21.83
2023-03-26T00:59:04.207Z,25.38
2023-03-26T01:01:32.381Z,25.73
2023-03-26T01:04:24.282Z,26.50
2023-03-26T01:06:52.068Z,20.75
2023-03-26T01:09:21.778Z,18.00
2023-03-26T01:11:50.317Z,20.88
2023-03-26T01:14:21.466Z,19.80
2023-03-26T01:16:55.202Z,19.27
2023-03-26T01:19:38.296Z,12.88
2023-03-26T01:22:12.060Z,16.27
2023-03-26T01:24:40.748Z,13.25
2023-03-26T01:27:17.996Z,13.20
2023-03-26T01:29:55.935Z,13.10
2023-03-26T01:32:37.808Z,15.75
2023-03-26T01:35:32.612Z,10.80
2023-03-26T01:38:12.210Z,11.20
2023-03-26T01:40:47.013Z,12.85
2023-03-26T01:43:33.094Z,9.15
2023-03-26T01:46:04.338Z,11.60
2023-03-26T01:48:38.355Z,13.35
2023-03-26T01:51:07.733Z,13.80
2023-03-26T01:53:42.277Z,9.40
2023-03-26T01:56:21.304Z,13.10
2023-03-26T01:58:57.621Z,12.57
2023-03-26T02:01:55.003Z,12.15
2023-03-26T02:07:07.266Z,13.18
2023-03-26T02:09:45.896Z,14.50
2023-03-26T02:12:15.556Z,9.85
2023-03-26T02:14:44.481Z,9.65
2023-03-26T02:17:12.219Z,12.00
2023-03-26T02:19:42.504Z,13.05
2023-03-26T02:22:15.699Z,8.95
2023-03-26T02:24:45.921Z,9.55
2023-03-26T02:27:14.494Z,8.95
2023-03-26T02:29:42.709Z,13.07
2023-03-26T02:32:13.424Z,11.73
2023-03-26T02:34:42.080Z,9.70
2023-03-26T02:37:10.265Z,14.77
2023-03-26T02:39:40.599Z,9.77
2023-03-26T02:42:16.361Z,11.30
2023-03-26T02:44:48.321Z,10.20
2023-03-26T02:47:36.109Z,11.13
2023-03-26T02:50:22.113Z,12.10
2023-03-26T02:53:10.033Z,13.40
2023-03-26T02:55:40.602Z,12.75
2023-03-26T02:58:08.596Z,12.30
2023-03-26T03:00:38.543Z,14.90
2023-03-26T03:03:27.506Z,15.43
2023-03-26T03:06:18.936Z,25.25
2023-03-26T03:08:55.446Z,14.45
2023-03-26T03:11:52.779Z,9.85
2023-03-26T03:14:20.623Z,12.30
2023-03-26T03:16:48.165Z,14.93
2023-03-26T03:19:16.247Z,18.25
2023-03-26T03:21:43.876Z,16.10
2023-03-26T03:24:13.920Z,15.43
2023-03-26T03:26:47.747Z,18.13
2023-03-26T03:29:55.840Z,18.77
2023-03-26T03:32:55.197Z,14.38
2023-03-26T03:35:25.948Z,13.32
2023-03-26T03:37:58.270Z,14.18
2023-03-26T03:40:26.311Z,15.05
2023-03-26T03:42:53.818Z,13.68
2023-03-26T03:50:35.148Z,14.45
2023-03-26T03:53:26.408Z,17.75
2023-03-26T03:55:57.139Z,16.73
2023-03-26T03:58:34.917Z,14.60
2023-03-26T04:01:11.314Z,14.90
2023-03-26T04:03:57.332Z,19.83
2023-03-26T04:06:32.046Z,21.77
2023-03-26T04:08:59.581Z,22.55
2023-03-26T04:11:27.193Z,25.40
2023-03-26T04:14:11.329Z,33.08
2023-03-26T04:16:49.569Z,29.42
2023-03-26T04:19:17.310Z,33.15
2023-03-26T04:21:44.730Z,30.08
2023-03-26T04:24:12.390Z,32.20
2023-03-26T04:27:01.040Z,31.27
2023-03-26T04:29:46.083Z,29.23
2023-03-26T04:32:30.265Z,30.85
2023-03-26T04:35:03.656Z,28.30
2023-03-26T04:37:34.462Z,28.80
2023-03-26T04:40:16.830Z,28.55
2023-03-26T04:43:06.564Z,20.90
2023-03-26T04:46:02.938Z,18.30
2023-03-26T04:48:32.816Z,15.98
2023-03-26T04:51:00.805Z,17.88
2023-03-26T04:53:28.600Z,18.60
2023-03-26T04:56:36.257Z,14.23
2023-03-26T04:59:26.119Z,17.95
2023-03-26T05:02:00.012Z,17.13
2023-03-26T05:04:29.944Z,15.95
2023-03-26T05:06:58.793Z,18.73
2023-03-26T05:09:41.912Z,19.10
2023-03-26T05:12:29.945Z,21.83
2023-03-26T05:15:03.717Z,21.88
2023-03-26T05:17:51.599Z,23.63
2023-03-26T05:20:43.588Z,23.02
2023-03-26T05:23:11.810Z,23.55
2023-03-26T05:25:43.394Z,21.25
2023-03-26T05:28:23.480Z,22.80
2023-03-26T05:31:23.789Z,21.05
2023-03-26T05:33:55.495Z,22.80
2023-03-26T05:36:23.893Z,19.92
2023-03-26T05:39:03.933Z,19.10
2023-03-26T05:42:07.895Z,20.08
2023-03-26T05:44:58.729Z,22.00
2023-03-26T05:47:29.203Z,29.38
2023-03-26T05:49:58.033Z,23.63
2023-03-26T05:52:26.701Z,19.85
2023-03-26T05:55:13.404Z,20.92
2023-03-26T05:58:07.293Z,22.45
2023-03-26T06:01:16.885Z,22.43
2023-03-26T06:04:19.500Z,22.85
2023-03-26T06:07:13.262Z,23.77
2023-03-26T06:09:45.219Z,20.70
2023-03-26T06:12:12.966Z,22.00
2023-03-26T06:14:44.954Z,20.08
2023-03-26T06:17:20.072Z,24.33
2023-03-26T06:20:17.108Z,18.52
2023-03-26T06:22:47.137Z,23.42
2023-03-26T06:25:21.144Z,22.73
2023-03-26T06:28:08.351Z,19.30
2023-03-26T06:30:55.086Z,19.35
2023-03-26T06:33:48.939Z,23.42
2023-03-26T06:36:16.889Z,26.02
2023-03-26T06:38:44.417Z,17.88
2023-03-26T06:41:12.131Z,16.33
2023-03-26T06:44:00.136Z,16.90
2023-03-26T06:46:46.078Z,14.60
2023-03-26T06:49:32.341Z,16.98
2023-03-26T06:52:32.051Z,15.02
2023-03-26T06:55:10.484Z,13.75
2023-03-26T06:57:58.202Z,12.55
2023-03-26T07:00:45.001Z,14.07
2023-03-26T07:03:31.407Z,17.33
2023-03-26T07:06:19.256Z,10.45
2023-03-26T07:09:12.761Z,13.20
2023-03-26T07:11:59.794Z,15.95
2023-03-26T07:14:38.725Z,16.52
2023-03-26T07:17:22.388Z,13.68
2023-03-26T07:20:12.818Z,15.48
2023-03-26T07:22:42.278Z,14.55
2023-03-26T07:25:37.086Z,14.00
2023-03-26T07:28:39.564Z,13.55
2023-03-26T07:31:43.658Z,16.25
2023-03-26T07:34:49.596Z,10.13
2023-03-26T07:37:57.415Z,14.45
2023-03-26T07:41:02.920Z,14.73
2023-03-26T07:44:16.508Z,14.77
2023-03-26T07:47:35.418Z,17.90
2023-03-26T07:50:21.172Z,18.73
2023-03-26T07:53:01.434Z,16.42
2023-03-26T07:56:07.720Z,13.82
2023-03-26T07:59:23.408Z,13.27
2023-03-26T08:02:23.557Z,15.00
2023-03-26T08:05:05.407Z,14.70
2023-03-26T08:08:20.745Z,14.18
2023-03-26T08:11:44.645Z,14.18
2023-03-26T08:14:42.203Z,13.27
2023-03-26T08:17:24.867Z,11.98
2023-03-26T08:20:18.587Z,15.07
2023-03-26T08:22:52.047Z,15.38
2023-03-26T08:25:48.955Z,14.35
2023-03-26T08:28:29.198Z,14.50
2023-03-26T08:30:57.446Z,17.55
2023-03-26T08:33:27.837Z,15.80
2023-03-26T08:35:55.559Z,16.58
2023-03-26T08:38:23.193Z,15.10
2023-03-26T08:41:05.927Z,16.20
2023-03-26T08:43:46.274Z,17.40
2023-03-26T08:46:30.406Z,17.63
2023-03-26T08:49:17.023Z,15.55
2023-03-26T08:52:23.114Z,13.55
2023-03-26T08:55:08.773Z,18.52
2023-03-26T09:00:35.743Z,12.10
2023-03-26T09:03:24.349Z,10.52
2023-03-26T09:06:17.207Z,7.90
2023-03-26T09:08:53.638Z,9.43
2023-03-26T09:12:07.738Z,6.82
2023-03-26T09:14:48.253Z,6.85
2023-03-26T09:18:05.761Z,6.45
2023-03-26T09:21:32.149Z,10.80
2023-03-26T09:24:21.075Z,5.93
2023-03-26T09:27:14.263Z,7.47
2023-03-26T09:29:53.846Z,5.80
2023-03-26T09:32:38.026Z,7.82
2023-03-26T09:35:23.608Z,6.78
2023-03-26T09:37:58.851Z,9.82
2023-03-26T09:40:37.205Z,6.80
2023-03-26T09:43:42.197Z,8.85
2023-03-26T09:46:38.100Z,7.82
2023-03-26T09:49:05.684Z,8.52
2023-03-26T09:51:50.362Z,5.10
2023-03-26T09:54:25.623Z,8.23
2023-03-26T09:57:03.767Z,5.35
2023-03-26T09:59:44.563Z,8.23
2023-03-26T10:02:57.986Z,8.18
2023-03-26T10:05:48.597Z,7.55
2023-03-26T10:08:32.427Z,8.05
2023-03-26T10:11:13.922Z,7.15
2023-03-26T10:13:51.390Z,10.02
2023-03-26T10:16:49.395Z,7.40
2023-03-26T10:19:54.510Z,4.90
2023-03-26T10:22:38.614Z,17.02
2023-03-26T10:25:15.034Z,7.22
2023-03-26T10:27:46.507Z,7.93
2023-03-26T10:30:36.371Z,9.18
2023-03-26T10:33:07.023Z,8.80
2023-03-26T10:36:21.142Z,10.45
2023-03-26T10:39:09.404Z,7.20
2023-03-26T10:41:58.499Z,7.22
2023-03-26T10:44:49.594Z,10.60
2023-03-26T10:47:56.117Z,11.38
2023-03-26T10:50:44.616Z,10.32
2023-03-26T10:53:51.892Z,9.13
2023-03-26T10:56:31.591Z,5.53
2023-03-26T10:59:05.645Z,8.15
2023-03-26T11:01:44.207Z,8.48
2023-03-26T11:04:34.769Z,9.20
2023-03-26T11:07:32.128Z,9.63
2023-03-26T11:10:08.442Z,9.88
2023-03-26T11:15:43.014Z,8.73
2023-03-26T11:18:19.464Z,9.60
2023-03-26T11:21:19.056Z,6.55
2023-03-26T11:24:17.687Z,6.60
2023-03-26T11:26:56.059Z,11.13
2023-03-26T11:29:50.036Z,9.85
2023-03-26T11:32:22.501Z,8.93
2023-03-26T11:35:13.339Z,11.73
2023-03-26T11:37:51.064Z,8.52
2023-03-26T11:40:21.556Z,10.45
2023-03-26T11:42:54.266Z,10.07
2023-03-26T11:45:27.405Z,10.13
2023-03-26T11:48:22.442Z,11.60
2023-03-26T11:50:59.916Z,12.65
2023-03-26T11:53:34.570Z,8.68
2023-03-26T11:56:15.055Z,9.00
2023-03-26T11:58:58.212Z,8.68
2023-03-26T12:01:30.192Z,7.47
2023-03-26T12:04:05.312Z,6.18
2023-03-26T12:06:33.004Z,6.15
2023-03-26T12:09:00.860Z,7.63
2023-03-26T12:11:35.283Z,8.02
2023-03-26T12:14:05.553Z,10.13
2023-03-26T12:16:34.755Z,9.38
2023-03-26T12:19:19.355Z,9.82
2023-03-26T12:21:52.397Z,12.00
2023-03-26T12:24:46.901Z,8.65
2023-03-26T12:27:30.870Z,11.40
2023-03-26T12:30:08.831Z,12.30
2023-03-26T12:32:46.225Z,8.85
2023-03-26T12:35:18.804Z,9.05
2023-03-26T12:37:47.447Z,5.72
2023-03-26T12:40:34.426Z,8.90
2023-03-26T12:44:47.787Z,6.68
2023-03-26T12:48:00.651Z,9.55
2023-03-26T12:49:13.598Z,17.23
2023-03-26T12:51:53.038Z,12.25
2023-03-26T12:55:02.580Z,9.45
2023-03-26T12:58:00.884Z,12.13
2023-03-26T13:01:03.188Z,8.20
2023-03-26T13:03:34.492Z,11.10
2023-03-26T13:06:26.624Z,9.48
2023-03-26T13:09:15.793Z,11.95
2023-03-26T13:12:11.889Z,8.30
2023-03-26T13:14:42.278Z,13.30
2023-03-26T13:17:35.019Z,10.98
2023-03-26T13:20:26.587Z,10.55
2023-03-26T13:23:22.120Z,8.45
2023-03-26T13:26:14.581Z,7.07
2023-03-26T13:29:00.313Z,8.07
2023-03-26T13:31:39.659Z,6.87
2023-03-26T13:34:29.031Z,9.77
2023-03-26T13:37:10.911Z,17.40
2023-03-26T13:39:50.032Z,16.02
2023-03-26T13:42:45.495Z,12.13
2023-03-26T13:45:37.954Z,17.58
2023-03-26T13:48:13.779Z,14.75
2023-03-26T13:50:44.746Z,11.88
2023-03-26T13:53:24.374Z,11.45
2023-03-26T13:55:59.290Z,12.07
2023-03-26T13:58:34.474Z,9.40
2023-03-26T14:01:19.565Z,10.27
2023-03-26T14:03:52.529Z,12.65
2023-03-26T14:06:23.207Z,13.02
2023-03-26T14:09:06.971Z,10.90
2023-03-26T14:11:53.014Z,12.68
2023-03-26T14:14:54.281Z,14.57
2023-03-26T14:17:27.928Z,18.70
2023-03-26T14:20:22.796Z,17.98
2023-03-26T14:23:02.301Z,11.95
2023-03-26T14:25:46.724Z,18.92
2023-03-26T14:28:51.549Z,18.85
2023-03-26T14:31:39.152Z,14.05
2023-03-26T14:34:51.824Z,11.93
2023-03-26T14:37:53.772Z,12.75
2023-03-26T14:40:30.642Z,16.92
2023-03-26T14:43:16.715Z,17.30
2023-03-26T14:46:07.593Z,17.75
2023-03-26T14:48:50.128Z,12.63
2023-03-26T14:51:36.634Z,19.02
2023-03-26T14:54:12.164Z,22.15
2023-03-26T14:57:17.552Z,18.52
2023-03-26T14:59:51.237Z,17.75
2023-03-26T15:02:57.913Z,19.48
2023-03-26T15:05:50.258Z,20.08
2023-03-26T15:08:33.821Z,19.70
2023-03-26T15:11:24.377Z,20.75
2023-03-26T15:14:13.537Z,26.27
2023-03-26T15:17:08.260Z,20.67
2023-03-26T15:19:52.775Z,20.23
2023-03-26T15:22:46.464Z,20.13
2023-03-26T15:26:02.010Z,21.50
2023-03-26T15:28:57.471Z,23.35
2023-03-26T15:31:51.874Z,20.88
2023-03-26T15:34:57.153Z,23.38
2023-03-26T15:37:54.646Z,19.77
2023-03-26T15:40:28.231Z,22.88
2023-03-26T15:43:12.354Z,26.42
2023-03-26T15:45:44.595Z,26.83
2023-03-26T15:48:12.447Z,22.35
2023-03-26T15:50:40.077Z,24.83
2023-03-26T15:53:14.752Z,24.42
2023-03-26T15:56:17.777Z,23.80
2023-03-26T15:58:53.818Z,19.35
2023-03-26T16:02:16.429Z,23.77
2023-03-26T16:04:54.724Z,20.73
2023-03-26T16:07:43.878Z,25.27
2023-03-26T16:10:28.501Z,21.95
2023-03-26T16:13:14.852Z,21.55
2023-03-26T16:15:43.649Z,21.85
2023-03-26T16:18:25.715Z,23.95
2023-03-26T16:20:58.783Z,28.45
2023-03-26T16:23:32.210Z,22.58
2023-03-26T16:26:22.355Z,29.58
2023-03-26T16:28:53.514Z,21.67
2023-03-26T16:31:37.901Z,17.10
2023-03-26T16:34:09.071Z,20.88
2023-03-26T16:36:46.067Z,18.77
2023-03-26T16:39:23.054Z,12.35
2023-03-26T16:42:22.313Z,10.10
2023-03-26T16:44:52.630Z,7.53
2023-03-26T16:48:04.742Z,8.07
2023-03-26T16:50:35.799Z,9.77
2023-03-26T16:53:13.445Z,5.05
2023-03-26T16:56:00.412Z,5.15
2023-03-26T16:58:34.372Z,4.50
2023-03-26T17:01:16.834Z,8.48
2023-03-26T17:04:10.197Z,6.43
2023-03-26T17:06:45.875Z,3.25
2023-03-26T17:09:26.017Z,2.60
2023-03-26T17:12:23.950Z,6.53
2023-03-26T17:15:26.428Z,7.28
2023-03-26T17:18:02.760Z,5.43
2023-03-26T17:20:42.278Z,2.92
2023-03-26T17:23:31.545Z,8.38
2023-03-26T17:26:24.482Z,10.77
2023-03-26T17:29:32.378Z,3.45
2023-03-26T17:32:12.331Z,3.55
2023-03-26T17:34:48.893Z,6.35
2023-03-26T17:39:43.841Z,5.72
2023-03-26T17:42:16.395Z,5.47
2023-03-26T17:44:48.043Z,3.78
2023-03-26T17:47:28.711Z,4.28
2023-03-26T17:50:14.610Z,3.42
2023-03-26T17:52:57.126Z,3.10
2023-03-26T17:55:31.488Z,4.50
2023-03-26T17:58:28.032Z,6.35
2023-03-26T18:01:08.036Z,4.27
2023-03-26T18:03:50.236Z,7.13
2023-03-26T18:06:31.050Z,22.50
2023-03-26T18:09:13.150Z,13.45
2023-03-26T18:11:57.998Z,14.50
2023-03-26T18:15:02.579Z,13.52
2023-03-26T18:17:40.077Z,12.20
2023-03-26T18:20:23.368Z,7.03
2023-03-26T18:22:52.256Z,7.97
2023-03-26T18:25:35.161Z,7.20
2023-03-26T18:28:02.992Z,8.90
2023-03-26T18:30:30.577Z,7.65
2023-03-26T18:33:07.772Z,8.30
2023-03-26T18:35:45.068Z,10.45
2023-03-26T18:38:35.954Z,13.32
2023-03-26T18:41:08.701Z,11.55
2023-03-26T18:43:44.050Z,22.77
2023-03-26T18:46:14.753Z,9.03
2023-03-26T18:48:43.266Z,6.97
2023-03-26T18:51:11.282Z,11.07
2023-03-26T18:53:50.610Z,8.32
2023-03-26T18:56:30.523Z,6.47
2023-03-26T18:59:00.760Z,8.32
2023-03-26T19:01:32.055Z,11.18
2023-03-26T19:04:06.419Z,6.60
2023-03-26T19:06:40.477Z,13.10
2023-03-26T19:09:30.278Z,7.75
2023-03-26T19:12:08.782Z,8.40
2023-03-26T19:14:54.254Z,9.90
2023-03-26T19:17:23.754Z,12.43
2023-03-26T19:19:51.910Z,12.77
2023-03-26T19:22:21.189Z,9.20
2023-03-26T19:24:53.393Z,11.45
2023-03-26T19:27:21.306Z,11.65
2023-03-26T19:29:48.998Z,12.13
2023-03-26T19:32:20.363Z,14.23
2023-03-26T19:34:48.548Z,11.50
2023-03-26T19:37:28.705Z,10.57
2023-03-26T19:40:14.293Z,12.52
2023-03-26T19:42:44.836Z,16.25
2023-03-26T19:45:23.286Z,14.82
2023-03-26T19:48:03.495Z,15.77
2023-03-26T19:50:46.167Z,15.45
2023-03-26T19:53:24.346Z,13.38
2023-03-26T19:55:58.706Z,14.05
2023-03-26T19:58:27.311Z,17.10
2023-03-26T20:00:56.406Z,13.82
2023-03-26T20:03:30.014Z,15.13
2023-03-26T20:05:57.798Z,16.90
2023-03-26T20:08:28.415Z,16.45
2023-03-26T20:10:57.226Z,12.88
2023-03-26T20:13:24.993Z,14.13
2023-03-26T20:16:06.505Z,17.92
2023-03-26T20:18:34.970Z,13.40
2023-03-26T20:21:08.938Z,12.60
2023-03-26T20:23:37.065Z,11.50
2023-03-26T20:26:05.161Z,12.73
2023-03-26T20:28:38.848Z,12.98
2023-03-26T20:31:20.071Z,11.50
2023-03-26T20:33:49.619Z,10.43
2023-03-26T20:36:34.126Z,8.32
2023-03-26T20:39:08.101Z,12.52
2023-03-26T20:41:45.180Z,14.32
2023-03-26T20:44:21.231Z,15.07
2023-03-26T20:46:51.796Z,12.50
2023-03-26T20:49:23.723Z,17.30
2023-03-26T20:51:54.323Z,11.52
2023-03-26T20:54:25.636Z,12.88
2023-03-26T20:56:55.444Z,10.95
2023-03-26T20:59:28.325Z,13.32
2023-03-26T21:02:01.635Z,14.82
2023-03-26T21:04:33.351Z,17.10
2023-03-26T21:07:11.152Z,14.25
2023-03-26T21:09:50.220Z,14.90
2023-03-26T21:12:32.398Z,16.23
2023-03-26T21:15:03.283Z,14.95
2023-03-26T21:17:33.731Z,15.75
2023-03-26T21:20:12.504Z,13.93
2023-03-26T21:22:50.921Z,18.05
2023-03-26T21:26:04.101Z,14.98
2023-03-26T21:28:46.372Z,13.68
2023-03-26T21:31:21.219Z,16.25
2023-03-26T21:33:50.712Z,17.67
2023-03-26T21:36:20.558Z,18.38
2023-03-26T21:38:50.656Z,20.35
2023-03-26T21:41:24.802Z,20.73
2023-03-26T21:43:52.801Z,16.83
2023-03-26T21:46:21.204Z,19.08
2023-03-26T21:48:49.748Z,17.52
2023-03-26T21:51:19.802Z,15.75
2023-03-26T21:53:50.267Z,15.48
2023-03-26T21:56:25.834Z,12.90
2023-03-26T21:59:15.806Z,16.63
2023-03-26T22:02:31.001Z,17.65
2023-03-26T22:05:11.394Z,18.27
2023-03-26T22:07:45.948Z,14.18
2023-03-26T22:10:14.452Z,13.35
2023-03-26T22:12:42.501Z,14.43
2023-03-26T22:15:13.924Z,13.68
2023-03-26T22:17:42.485Z,14.75
2023-03-26T22:20:15.009Z,17.85
2023-03-26T22:22:49.175Z,16.50
2023-03-26T22:25:18.631Z,14.93
2023-03-26T22:27:47.738Z,14.40
2023-03-26T22:30:16.874Z,13.63
2023-03-26T22:32:44.925Z,17.40
2023-03-26T22:35:13.087Z,14.38
2023-03-26T22:37:41.727Z,16.35
2023-03-26T22:40:10.631Z,16.38
2023-03-26T22:42:38.920Z,17.08
2023-03-26T22:45:07.825Z,18.48
2023-03-26T22:47:35.768Z,17.23
2023-03-26T22:50:05.274Z,13.43
2023-03-26T22:52:33.787Z,14.32
2023-03-26T22:55:01.676Z,19.48
2023-03-26T22:57:29.362Z,17.42
2023-03-26T22:59:58.531Z,23.67
2023-03-26T23:02:29.758Z,17.58
2023-03-26T23:04:57.493Z,16.25
2023-03-26T23:07:25.120Z,16.75
2023-03-26T23:09:53.157Z,21.20
2023-03-26T23:12:20.840Z,12.90
2023-03-26T23:14:52.430Z,15.57
2023-03-26T23:17:20.277Z,11.70
2023-03-26T23:19:48.121Z,14.07
2023-03-26T23:22:16.315Z,15.25
2023-03-26T23:24:44.884Z,13.05
2023-03-26T23:27:13.096Z,15.57
2023-03-26T23:29:40.731Z,14.10
2023-03-26T23:32:24.025Z,12.25
2023-03-26T23:34:52.943Z,13.10
2023-03-26T23:37:23.552Z,14.20
2023-03-26T23:39:52.258Z,17.45
2023-03-26T23:42:29.222Z,17.58
2023-03-26T23:44:57.727Z,13.60
2023-03-26T23:47:25.374Z,13.18
2023-03-26T23:49:53.259Z,16.63
2023-03-26T23:52:20.866Z,18.98
2023-03-26T23:54:48.518Z,19.15
2023-03-26T23:57:18.576Z,23.27
2023-03-26T23:59:46.272Z,18.52
